createdAt,value
2022-11-17T00:01:29.538Z,90.59
2022-11-17T00:03:56.952Z,90.46
2022-11-17T00:06:24.416Z,90.69
2022-11-17T00:08:53.652Z,88.66
2022-11-17T00:11:22.408Z,88.30
2022-11-17T00:14:07.380Z,88.47
2022-11-17T00:16:34.785Z,88.92
2022-11-17T00:19:19.522Z,89.51
2022-11-17T00:21:46.894Z,90.19
2022-11-17T00:24:17.240Z,90.27
2022-11-17T00:27:00.013Z,89.25
2022-11-17T00:29:27.379Z,89.27
2022-11-17T00:32:13.002Z,89.47
2022-11-17T00:34:40.724Z,90.63
2022-11-17T00:37:09.507Z,89.64
2022-11-17T00:39:37.387Z,88.81
2022-11-17T00:42:06.367Z,87.72
2022-11-17T00:44:33.739Z,88.23
2022-11-17T00:47:01.171Z,89.36
2022-11-17T00:49:28.607Z,90.30
2022-11-17T00:51:57.803Z,89.97
2022-11-17T00:54:25.387Z,88.82
2022-11-17T00:56:52.899Z,89.47
2022-11-17T00:59:21.698Z,89.48
2022-11-17T01:01:49.220Z,89.67
2022-11-17T01:04:17.089Z,90.36
2022-11-17T01:06:46.315Z,90.54
2022-11-17T01:09:16.775Z,89.53
2022-11-17T01:11:44.958Z,89.82
2022-11-17T01:14:14.106Z,89.20
2022-11-17T01:16:43.049Z,88.79
2022-11-17T01:19:12.830Z,89.80
2022-11-17T01:21:40.284Z,89.92
2022-11-17T01:24:08.368Z,88.31
2022-11-17T01:26:37.416Z,88.41
2022-11-17T01:29:06.068Z,86.16
2022-11-17T01:31:35.836Z,84.99
2022-11-17T01:34:04.649Z,86.84
2022-11-17T01:36:56.005Z,87.47
2022-11-17T01:39:24.141Z,88.68
2022-11-17T01:41:51.957Z,87.97
2022-11-17T01:44:54.905Z,88.41
2022-11-17T01:47:27.010Z,87.29
2022-11-17T01:50:01.455Z,86.33
2022-11-17T01:52:32.314Z,88.08
2022-11-17T01:55:01.400Z,87.34
2022-11-17T01:57:33.939Z,86.42
2022-11-17T02:00:05.244Z,87.83
2022-11-17T02:02:34.076Z,86.92
2022-11-17T02:05:11.455Z,87.99
2022-11-17T02:07:41.132Z,87.74
2022-11-17T02:10:09.288Z,87.55
2022-11-17T02:12:37.722Z,88.40
2022-11-17T02:15:06.561Z,88.66
2022-11-17T02:17:37.605Z,89.32
2022-11-17T02:20:11.281Z,88.33
2022-11-17T02:23:23.008Z,87.82
2022-11-17T02:26:09.620Z,89.14
2022-11-17T02:28:43.546Z,88.88
2022-11-17T02:31:22.055Z,88.17
2022-11-17T02:37:43.170Z,88.36
2022-11-17T02:40:14.788Z,88.73
2022-11-17T02:43:01.844Z,89.74
2022-11-17T02:45:37.157Z,88.11
2022-11-17T02:48:08.261Z,89.53
2022-11-17T02:50:35.963Z,88.78
2022-11-17T02:53:04.830Z,87.15
2022-11-17T02:55:35.766Z,87.62
2022-11-17T02:58:03.148Z,88.81
2022-11-17T03:00:35.035Z,89.06
2022-11-17T03:03:20.725Z,86.97
2022-11-17T03:05:58.170Z,86.73
2022-11-17T03:08:33.152Z,88.42
2022-11-17T03:11:03.568Z,88.81
2022-11-17T03:13:43.086Z,89.81
2022-11-17T03:16:20.924Z,89.05
2022-11-17T03:18:59.305Z,87.05
2022-11-17T03:21:30.029Z,86.31
2022-11-17T03:24:04.954Z,87.86
2022-11-17T03:26:35.852Z,88.28
2022-11-17T03:29:08.539Z,88.25
2022-11-17T03:31:39.299Z,88.68
2022-11-17T03:34:12.473Z,88.70
2022-11-17T03:36:45.209Z,88.13
2022-11-17T03:39:16.622Z,89.04
2022-11-17T03:41:48.906Z,88.98
2022-11-17T03:44:19.426Z,88.27
2022-11-17T03:46:50.137Z,87.71
2022-11-17T03:49:24.542Z,84.25
2022-11-17T03:51:52.306Z,84.36
2022-11-17T03:54:19.857Z,84.44
2022-11-17T03:56:54.643Z,86.39
2022-11-17T03:59:28.070Z,86.85
2022-11-17T04:01:57.030Z,86.65
2022-11-17T04:04:25.013Z,86.73
2022-11-17T04:06:53.368Z,89.01
2022-11-17T04:09:24.381Z,86.21
2022-11-17T04:12:09.647Z,87.87
2022-11-17T04:14:54.470Z,89.37
2022-11-17T04:17:23.530Z,88.16
2022-11-17T04:19:50.920Z,86.74
2022-11-17T04:22:18.313Z,85.41
2022-11-17T04:24:45.752Z,87.11
2022-11-17T04:27:30.777Z,88.70
2022-11-17T04:29:58.173Z,85.68
2022-11-17T04:32:26.863Z,86.61
2022-11-17T04:34:54.249Z,88.50
2022-11-17T04:37:22.832Z,87.86
2022-11-17T04:39:50.474Z,89.01
2022-11-17T04:42:17.005Z,89.22
2022-11-17T04:44:44.401Z,88.11
2022-11-17T04:47:11.767Z,84.43
2022-11-17T04:49:40.506Z,85.30
2022-11-17T04:52:07.913Z,86.31
2022-11-17T04:54:35.312Z,89.21
2022-11-17T04:57:02.701Z,89.86
2022-11-17T04:59:30.100Z,91.58
2022-11-17T05:02:02.512Z,89.93
2022-11-17T05:04:50.262Z,86.65
2022-11-17T05:07:19.021Z,87.33
2022-11-17T05:09:46.440Z,87.69
2022-11-17T05:12:31.355Z,85.60
2022-11-17T05:14:58.710Z,89.22
2022-11-17T05:17:25.156Z,88.94
2022-11-17T05:19:52.589Z,90.92
2022-11-17T05:22:41.844Z,89.15
2022-11-17T05:25:10.228Z,88.63
2022-11-17T05:27:38.081Z,89.32
2022-11-17T05:30:08.128Z,88.57
2022-11-17T05:32:35.641Z,87.17
2022-11-17T05:35:03.040Z,88.97
2022-11-17T05:37:31.750Z,89.60
2022-11-17T05:39:59.117Z,89.35
2022-11-17T05:42:26.537Z,89.25
2022-11-17T05:44:53.898Z,87.49
2022-11-17T05:47:21.284Z,87.27
2022-11-17T05:49:48.673Z,84.70
2022-11-17T05:52:16.270Z,88.14
2022-11-17T05:54:45.137Z,87.21
2022-11-17T05:57:17.750Z,88.23
2022-11-17T05:59:50.315Z,87.46
2022-11-17T06:02:24.510Z,89.89
2022-11-17T06:04:52.470Z,88.85
2022-11-17T06:07:20.567Z,87.37
2022-11-17T06:09:49.460Z,86.51
2022-11-17T06:12:17.072Z,87.12
2022-11-17T06:14:44.465Z,89.16
2022-11-17T06:17:22.138Z,89.38
2022-11-17T06:19:56.383Z,89.23
2022-11-17T06:22:26.170Z,89.35
2022-11-17T06:24:55.700Z,88.68
2022-11-17T06:27:23.480Z,90.46
2022-11-17T06:29:51.291Z,89.58
2022-11-17T06:32:20.802Z,89.85
2022-11-17T06:34:55.612Z,89.36
2022-11-17T06:37:23.988Z,89.05
2022-11-17T06:39:51.619Z,90.55
2022-11-17T06:42:40.326Z,89.56
2022-11-17T06:45:08.964Z,89.16
2022-11-17T06:47:36.351Z,88.98
2022-11-17T06:50:04.070Z,88.11
2022-11-17T06:52:31.477Z,89.08
2022-11-17T06:54:58.906Z,89.23
2022-11-17T06:57:27.606Z,90.04
2022-11-17T06:59:55.036Z,89.14
2022-11-17T07:02:22.482Z,89.64
2022-11-17T07:04:49.870Z,89.92
2022-11-17T07:07:17.293Z,89.28
2022-11-17T07:09:44.713Z,88.99
2022-11-17T07:12:12.092Z,88.23
2022-11-17T07:14:40.872Z,88.75
2022-11-17T07:17:08.538Z,88.20
2022-11-17T07:19:35.939Z,87.41
2022-11-17T07:22:04.597Z,87.67
2022-11-17T07:24:32.057Z,87.84
2022-11-17T07:26:59.473Z,87.40
2022-11-17T07:29:28.783Z,87.95
2022-11-17T07:31:57.494Z,88.79
2022-11-17T07:34:24.889Z,88.15
2022-11-17T07:36:52.279Z,87.09
2022-11-17T07:39:21.743Z,87.69
2022-11-17T07:41:49.472Z,88.31
2022-11-17T07:44:16.860Z,85.19
2022-11-17T07:46:44.260Z,84.91
2022-11-17T07:49:12.969Z,85.30
2022-11-17T07:51:40.398Z,83.97
2022-11-17T07:54:07.898Z,85.58
2022-11-17T07:56:35.513Z,85.05
2022-11-17T07:59:02.880Z,85.92
2022-11-17T08:01:30.502Z,85.62
2022-11-17T08:03:58.446Z,84.60
2022-11-17T08:06:27.324Z,85.87
2022-11-17T08:08:54.763Z,85.71
2022-11-17T08:11:22.307Z,86.11
2022-11-17T08:13:50.835Z,85.98
2022-11-17T08:16:18.744Z,86.24
2022-11-17T08:18:51.806Z,84.70
2022-11-17T08:21:19.662Z,84.97
2022-11-17T08:23:51.134Z,84.71
2022-11-17T08:26:19.182Z,85.20
2022-11-17T08:28:46.581Z,82.75
2022-11-17T08:31:14.444Z,83.22
2022-11-17T08:33:41.813Z,84.14
2022-11-17T08:36:09.647Z,83.55
2022-11-17T08:38:38.618Z,83.00
2022-11-17T08:41:09.318Z,84.29
2022-11-17T08:43:36.738Z,84.18
2022-11-17T08:46:04.409Z,84.57
2022-11-17T08:48:33.141Z,84.22
2022-11-17T08:51:06.352Z,83.62
2022-11-17T08:53:33.984Z,84.03
2022-11-17T08:56:01.661Z,85.59
2022-11-17T08:58:30.390Z,83.63
2022-11-17T09:01:03.844Z,84.30
2022-11-17T09:03:32.662Z,84.25
2022-11-17T09:06:02.080Z,84.93
2022-11-17T09:08:45.152Z,84.69
2022-11-17T09:11:17.094Z,83.77
2022-11-17T09:13:46.742Z,83.94
2022-11-17T09:16:15.384Z,81.52
2022-11-17T09:18:43.007Z,79.67
2022-11-17T09:21:13.419Z,83.27
2022-11-17T09:23:40.897Z,82.90
2022-11-17T09:26:10.286Z,81.85
2022-11-17T09:28:38.023Z,83.20
2022-11-17T09:31:11.812Z,83.36
2022-11-17T09:33:39.733Z,80.72
2022-11-17T09:36:08.259Z,82.48
2022-11-17T09:38:36.190Z,82.60
2022-11-17T09:41:12.823Z,83.42
2022-11-17T09:43:45.987Z,83.13
2022-11-17T09:46:21.505Z,81.97
2022-11-17T09:48:54.660Z,82.10
2022-11-17T09:51:26.097Z,81.97
2022-11-17T09:53:58.378Z,82.66
2022-11-17T09:56:28.073Z,82.58
2022-11-17T09:58:59.715Z,83.15
2022-11-17T10:01:29.926Z,83.04
2022-11-17T10:04:00.023Z,79.84
2022-11-17T10:06:29.714Z,82.21
2022-11-17T10:09:02.802Z,83.43
2022-11-17T10:11:35.095Z,84.28
2022-11-17T10:14:04.953Z,83.68
2022-11-17T10:16:33.710Z,82.31
2022-11-17T10:19:03.304Z,82.44
2022-11-17T10:21:31.325Z,84.36
2022-11-17T10:24:00.389Z,85.26
2022-11-17T10:26:28.079Z,84.09
2022-11-17T10:29:09.052Z,84.04
2022-11-17T10:31:46.152Z,84.43
2022-11-17T10:34:37.065Z,81.98
2022-11-17T10:37:28.182Z,79.72
2022-11-17T10:40:23.658Z,83.48
2022-11-17T10:43:00.729Z,85.13
2022-11-17T10:45:28.987Z,87.38
2022-11-17T10:48:11.541Z,86.55
2022-11-17T10:50:38.961Z,87.14
2022-11-17T10:53:30.464Z,84.73
2022-11-17T10:56:04.806Z,84.25
2022-11-17T10:58:33.803Z,84.07
2022-11-17T11:01:04.009Z,83.19
2022-11-17T11:03:34.991Z,83.59
2022-11-17T11:06:10.769Z,85.53
2022-11-17T11:08:50.912Z,81.06
2022-11-17T11:11:35.896Z,83.32
2022-11-17T11:14:13.107Z,84.96
2022-11-17T11:16:46.682Z,85.73
2022-11-17T11:19:19.844Z,82.48
2022-11-17T11:22:06.064Z,80.69
2022-11-17T11:24:42.690Z,79.41
2022-11-17T11:27:29.131Z,81.54
2022-11-17T11:30:03.272Z,80.88
2022-11-17T11:32:39.950Z,80.14
2022-11-17T11:35:34.702Z,83.06
2022-11-17T11:38:16.516Z,83.65
2022-11-17T11:40:52.776Z,83.23
2022-11-17T11:43:33.898Z,83.47
2022-11-17T11:46:08.985Z,84.34
2022-11-17T11:48:40.808Z,83.63
2022-11-17T11:51:15.716Z,84.44
2022-11-17T11:53:50.583Z,84.67
2022-11-17T11:56:21.927Z,83.82
2022-11-17T11:58:55.038Z,83.53
2022-11-17T12:01:24.527Z,84.52
2022-11-17T12:03:59.065Z,84.73
2022-11-17T12:06:43.317Z,85.25
2022-11-17T12:09:26.105Z,84.01
2022-11-17T12:12:11.609Z,82.73
2022-11-17T12:14:39.514Z,82.42
2022-11-17T12:17:23.191Z,83.60
2022-11-17T12:19:57.215Z,83.24
2022-11-17T12:22:50.250Z,83.32
2022-11-17T12:25:20.120Z,82.69
2022-11-17T12:27:49.611Z,81.85
2022-11-17T12:30:55.757Z,82.91
2022-11-17T12:33:24.379Z,81.42
2022-11-17T12:36:31.075Z,81.98
2022-11-17T12:39:01.441Z,82.17
2022-11-17T12:42:06.502Z,82.93
2022-11-17T12:44:59.144Z,82.43
2022-11-17T12:47:29.017Z,83.14
2022-11-17T12:50:33.039Z,83.54
2022-11-17T12:53:24.297Z,84.16
2022-11-17T12:56:08.757Z,83.83
2022-11-17T12:58:46.845Z,83.95
2022-11-17T13:01:21.102Z,82.10
2022-11-17T13:03:55.786Z,80.82
2022-11-17T13:06:38.491Z,80.85
2022-11-17T13:09:07.429Z,81.79
2022-11-17T13:11:36.453Z,82.61
2022-11-17T13:14:09.443Z,83.04
2022-11-17T13:16:38.407Z,82.66
2022-11-17T13:19:30.573Z,81.79
2022-11-17T13:22:00.994Z,82.94
2022-11-17T13:24:34.012Z,84.42
2022-11-17T13:27:07.208Z,83.01
2022-11-17T13:29:35.230Z,83.49
2022-11-17T13:32:12.575Z,81.83
2022-11-17T13:34:47.505Z,83.30
2022-11-17T13:37:18.001Z,83.71
2022-11-17T13:39:59.503Z,84.13
2022-11-17T13:42:32.125Z,83.18
2022-11-17T13:45:02.815Z,83.57
2022-11-17T13:47:46.360Z,82.77
2022-11-17T13:50:37.981Z,83.19
2022-11-17T13:53:19.403Z,81.73
2022-11-17T13:55:48.009Z,81.86
2022-11-17T13:58:28.412Z,82.47
2022-11-17T14:00:57.961Z,83.21
2022-11-17T14:03:44.353Z,83.85
2022-11-17T14:06:13.706Z,83.84
2022-11-17T14:08:42.783Z,82.65
2022-11-17T14:11:21.121Z,83.77
2022-11-17T14:13:51.935Z,84.19
2022-11-17T14:16:27.773Z,83.75
2022-11-17T14:19:00.987Z,81.93
2022-11-17T14:21:29.253Z,79.77
2022-11-17T14:24:11.090Z,84.40
2022-11-17T14:26:44.431Z,82.89
2022-11-17T14:29:14.225Z,82.61
2022-11-17T14:31:41.709Z,83.60
2022-11-17T14:34:09.111Z,83.36
2022-11-17T14:36:37.788Z,82.45
2022-11-17T14:39:12.154Z,83.87
2022-11-17T14:41:40.783Z,84.03
2022-11-17T14:44:08.344Z,83.52
2022-11-17T14:46:37.339Z,83.37
2022-11-17T14:49:05.478Z,82.80
2022-11-17T14:51:33.515Z,84.13
2022-11-17T14:54:01.509Z,83.49
2022-11-17T14:56:28.860Z,83.40
2022-11-17T14:58:59.000Z,82.96
2022-11-17T15:01:30.323Z,83.37
2022-11-17T15:04:15.356Z,83.18
2022-11-17T15:06:48.819Z,84.79
2022-11-17T15:09:16.569Z,85.74
2022-11-17T15:11:44.019Z,86.44
2022-11-17T15:14:11.728Z,85.62
2022-11-17T15:16:39.130Z,85.51
2022-11-17T15:19:07.874Z,85.21
2022-11-17T15:21:35.286Z,85.69
2022-11-17T15:24:03.342Z,86.30
2022-11-17T15:26:30.746Z,86.78
2022-11-17T15:29:01.151Z,86.72
2022-11-17T15:31:29.100Z,87.08
2022-11-17T15:33:56.491Z,85.52
2022-11-17T15:36:25.402Z,86.60
2022-11-17T15:38:53.949Z,86.13
2022-11-17T15:41:21.383Z,87.74
2022-11-17T15:43:48.919Z,88.75
2022-11-17T15:46:18.208Z,87.73
2022-11-17T15:48:47.217Z,85.25
2022-11-17T15:51:16.775Z,86.51
2022-11-17T15:53:47.233Z,84.82
2022-11-17T15:56:16.778Z,84.87
2022-11-17T15:58:44.577Z,87.03
2022-11-17T16:01:14.035Z,87.61
2022-11-17T16:03:42.844Z,88.68
2022-11-17T16:06:11.009Z,88.13
2022-11-17T16:08:39.415Z,88.15
2022-11-17T16:11:10.359Z,88.47
2022-11-17T16:13:38.876Z,88.32
2022-11-17T16:16:07.416Z,89.09
2022-11-17T16:18:37.554Z,88.57
2022-11-17T16:21:06.751Z,88.95
2022-11-17T16:23:38.633Z,88.51
2022-11-17T16:26:06.218Z,87.65
2022-11-17T16:28:35.070Z,89.29
2022-11-17T16:31:13.212Z,88.62
2022-11-17T16:33:40.664Z,89.00
2022-11-17T16:36:09.319Z,89.50
2022-11-17T16:38:42.318Z,91.42
2022-11-17T16:41:13.260Z,90.68
2022-11-17T16:43:44.713Z,91.09
2022-11-17T16:46:16.927Z,91.00
2022-11-17T16:48:44.311Z,91.62
2022-11-17T16:51:11.698Z,90.96
2022-11-17T16:53:39.089Z,90.06
2022-11-17T16:56:08.302Z,90.16
2022-11-17T16:58:36.232Z,90.97
2022-11-17T17:01:12.673Z,89.61
2022-11-17T17:03:41.438Z,87.65
2022-11-17T17:06:10.844Z,88.73
2022-11-17T17:08:38.621Z,89.05
2022-11-17T17:11:07.948Z,91.45
2022-11-17T17:13:36.403Z,91.63
2022-11-17T17:16:04.617Z,92.65
2022-11-17T17:18:33.821Z,92.78
2022-11-17T17:21:01.501Z,91.60
2022-11-17T17:23:29.584Z,90.80
2022-11-17T17:26:04.798Z,91.18
2022-11-17T17:28:32.864Z,92.45
2022-11-17T17:31:00.637Z,91.54
2022-11-17T17:33:28.571Z,93.31
2022-11-17T17:36:02.354Z,92.53
2022-11-17T17:38:29.818Z,89.77
2022-11-17T17:40:57.307Z,91.07
2022-11-17T17:43:24.730Z,90.84
2022-11-17T17:45:53.790Z,94.59
2022-11-17T17:48:21.170Z,95.10
2022-11-17T17:50:49.146Z,95.10
2022-11-17T17:53:17.863Z,96.18
2022-11-17T17:55:45.249Z,96.00
2022-11-17T17:58:12.653Z,94.29
2022-11-17T18:00:40.158Z,94.55
2022-11-17T18:03:07.606Z,95.65
2022-11-17T18:05:35.020Z,93.67
2022-11-17T18:08:04.684Z,94.10
2022-11-17T18:10:33.402Z,94.71
2022-11-17T18:13:00.788Z,94.67
2022-11-17T18:15:28.452Z,95.06
2022-11-17T18:17:55.816Z,95.44
2022-11-17T18:20:23.507Z,94.77
2022-11-17T18:22:50.859Z,95.21
2022-11-17T18:25:18.265Z,99.49
2022-11-17T18:27:46.946Z,94.42
2022-11-17T18:30:14.573Z,93.48
2022-11-17T18:32:41.964Z,94.28
2022-11-17T18:35:09.780Z,90.04
2022-11-17T18:37:37.146Z,95.18
2022-11-17T18:40:05.100Z,93.93
2022-11-17T18:42:33.499Z,94.82
2022-11-17T18:45:02.198Z,92.87
2022-11-17T18:47:29.744Z,93.45
2022-11-17T18:49:57.176Z,94.39
2022-11-17T18:52:28.594Z,92.68
2022-11-17T18:54:58.733Z,92.74
2022-11-17T18:57:26.092Z,90.74
2022-11-17T18:59:53.451Z,90.83
2022-11-17T19:02:22.149Z,92.55
2022-11-17T19:04:49.512Z,93.96
2022-11-17T19:07:17.048Z,93.52
2022-11-17T19:09:44.455Z,95.25
2022-11-17T19:12:12.479Z,94.63
2022-11-17T19:14:39.850Z,92.08
2022-11-17T19:17:07.811Z,91.64
2022-11-17T19:19:36.695Z,93.00
2022-11-17T19:22:04.456Z,93.47
2022-11-17T19:24:31.920Z,92.57
2022-11-17T19:26:59.413Z,94.43
2022-11-17T19:29:26.801Z,92.41
2022-11-17T19:31:54.623Z,91.70
2022-11-17T19:34:22.111Z,93.59
2022-11-17T19:36:50.829Z,95.12
2022-11-17T19:39:18.537Z,94.93
2022-11-17T19:41:47.626Z,94.58
2022-11-17T19:44:15.159Z,94.62
2022-11-17T19:46:43.258Z,95.95
2022-11-17T19:49:12.774Z,95.58
2022-11-17T19:51:41.157Z,95.64
2022-11-17T19:54:13.299Z,95.76
2022-11-17T19:56:40.955Z,93.54
2022-11-17T19:59:13.951Z,94.01
2022-11-17T20:01:43.617Z,94.60
2022-11-17T20:04:11.173Z,95.14
2022-11-17T20:06:39.860Z,95.06
2022-11-17T20:09:08.994Z,92.72
2022-11-17T20:11:38.014Z,91.32
2022-11-17T20:14:06.236Z,94.14
2022-11-17T20:16:34.511Z,93.51
2022-11-17T20:19:02.999Z,93.78
2022-11-17T20:21:31.840Z,94.29
2022-11-17T20:24:01.078Z,93.96
2022-11-17T20:26:30.897Z,94.08
2022-11-17T20:29:00.511Z,94.04
2022-11-17T20:31:29.943Z,94.22
2022-11-17T20:34:00.545Z,93.18
2022-11-17T20:36:29.100Z,94.79
2022-11-17T20:38:58.009Z,94.05
2022-11-17T20:41:26.165Z,93.17
2022-11-17T20:43:55.436Z,92.45
2022-11-17T20:46:26.574Z,91.68
2022-11-17T20:48:54.556Z,90.68
2022-11-17T20:51:23.469Z,91.11
2022-11-17T20:53:54.506Z,90.18
2022-11-17T20:56:21.965Z,90.50
2022-11-17T20:58:50.177Z,89.91
2022-11-17T21:01:19.664Z,90.64
2022-11-17T21:03:49.354Z,90.20
2022-11-17T21:06:18.299Z,89.92
2022-11-17T21:08:47.962Z,90.34
2022-11-17T21:11:37.742Z,91.24
2022-11-17T21:14:06.894Z,89.87
2022-11-17T21:16:38.376Z,90.91
2022-11-17T21:19:12.074Z,91.63
2022-11-17T21:21:39.762Z,91.55
2022-11-17T21:24:07.885Z,92.00
2022-11-17T21:26:35.590Z,90.18
2022-11-17T21:29:06.693Z,89.15
2022-11-17T21:31:34.850Z,90.52
2022-11-17T21:34:05.189Z,91.18
2022-11-17T21:36:35.677Z,93.24
2022-11-17T21:39:03.171Z,89.12
2022-11-17T21:41:38.589Z,89.45
2022-11-17T21:44:06.627Z,89.89
2022-11-17T21:46:37.728Z,91.25
2022-11-17T21:49:05.317Z,91.54
2022-11-17T21:51:38.194Z,90.86
2022-11-17T21:54:08.358Z,89.49
2022-11-17T21:56:42.606Z,89.63
2022-11-17T21:59:12.870Z,90.29
2022-11-17T22:01:40.869Z,90.86
2022-11-17T22:04:08.350Z,91.13
2022-11-17T22:06:39.332Z,90.70
2022-11-17T22:09:06.842Z,91.41
2022-11-17T22:11:37.784Z,90.30
2022-11-17T22:14:08.086Z,89.65
2022-11-17T22:16:36.168Z,90.41
2022-11-17T22:19:03.901Z,90.24
2022-11-17T22:21:31.320Z,90.21
2022-11-17T22:24:00.564Z,91.02
2022-11-17T22:26:28.083Z,92.29
2022-11-17T22:28:56.837Z,90.61
2022-11-17T22:31:24.819Z,91.14
2022-11-17T22:33:52.400Z,89.60
2022-11-17T22:36:20.607Z,90.20
2022-11-17T22:38:51.221Z,88.58
2022-11-17T22:41:21.612Z,87.87
2022-11-17T22:43:50.664Z,87.98
2022-11-17T22:46:19.294Z,90.01
2022-11-17T22:48:47.136Z,93.62
2022-11-17T22:51:35.394Z,91.76
2022-11-17T22:54:02.798Z,91.87
2022-11-17T22:56:31.863Z,94.08
2022-11-17T22:58:59.948Z,90.07
2022-11-17T23:01:27.780Z,91.11
2022-11-17T23:03:55.339Z,92.18
2022-11-17T23:06:24.134Z,92.65
2022-11-17T23:08:51.699Z,90.52
2022-11-17T23:11:36.486Z,91.67
2022-11-17T23:14:07.770Z,87.55
2022-11-17T23:16:35.266Z,86.96
2022-11-17T23:19:02.694Z,89.17
2022-11-17T23:21:30.293Z,85.72
2022-11-17T23:23:57.809Z,84.83
2022-11-17T23:26:25.227Z,84.98
2022-11-17T23:28:52.857Z,86.53
2022-11-17T23:31:21.924Z,84.29
2022-11-17T23:33:49.671Z,86.89
2022-11-17T23:36:19.186Z,85.60
2022-11-17T23:38:47.038Z,84.83
2022-11-17T23:41:17.326Z,83.79
2022-11-17T23:43:44.776Z,85.08
2022-11-17T23:46:15.113Z,88.90
2022-11-17T23:48:44.612Z,92.25
2022-11-17T23:51:13.951Z,90.57
2022-11-17T23:53:41.985Z,91.96
2022-11-17T23:56:10.373Z,93.35
2022-11-17T23:58:38.115Z,92.01
